sensor_id;sensor_type;location;lat;lon;timestamp;temperature;humidity
18807;DHT22;9531;52.030;4.380;2022-08-21T00:00:21;16.90;99.90
18807;DHT22;9531;52.030;4.380;2022-08-21T00:02:52;16.90;99.90
18807;DHT22;9531;52.030;4.380;2022-08-21T00:05:20;16.90;99.90
18807;DHT22;9531;52.030;4.380;2022-08-21T00:07:49;16.90;99.90
18807;DHT22;9531;52.030;4.380;2022-08-21T00:10:17;16.90;99.90
18807;DHT22;9531;52.030;4.380;2022-08-21T00:12:45;16.90;99.90
18807;DHT22;9531;52.030;4.380;2022-08-21T00:15:16;16.90;99.90
18807;DHT22;9531;52.030;4.380;2022-08-21T00:17:46;16.90;99.90
18807;DHT22;9531;52.030;4.380;2022-08-21T00:20:15;16.90;99.90
18807;DHT22;9531;52.030;4.380;2022-08-21T00:22:43;16.90;99.90
18807;DHT22;9531;52.030;4.380;2022-08-21T00:25:12;16.90;99.90
18807;DHT22;9531;52.030;4.380;2022-08-21T00:27:40;16.90;99.90
18807;DHT22;9531;52.030;4.380;2022-08-21T00:30:11;16.90;99.90
18807;DHT22;9531;52.030;4.380;2022-08-21T00:32:39;16.90;99.90
18807;DHT22;9531;52.030;4.380;2022-08-21T00:35:09;16.90;99.90
18807;DHT22;9531;52.030;4.380;2022-08-21T00:37:37;16.90;99.90
18807;DHT22;9531;52.030;4.380;2022-08-21T00:40:05;16.90;99.90
18807;DHT22;9531;52.030;4.380;2022-08-21T00:42:34;16.90;99.90
18807;DHT22;9531;52.030;4.380;2022-08-21T00:45:03;16.90;99.90
18807;DHT22;9531;52.030;4.380;2022-08-21T00:47:31;16.90;99.90
18807;DHT22;9531;52.030;4.380;2022-08-21T00:49:58;16.80;99.90
18807;DHT22;9531;52.030;4.380;2022-08-21T00:52:28;16.90;99.90
18807;DHT22;9531;52.030;4.380;2022-08-21T00:54:57;16.90;99.90
18807;DHT22;9531;52.030;4.380;2022-08-21T00:57:27;16.90;99.90
18807;DHT22;9531;52.030;4.380;2022-08-21T00:59:58;16.90;99.90
18807;DHT22;9531;52.030;4.380;2022-08-21T01:02:27;16.90;99.90
18807;DHT22;9531;52.030;4.380;2022-08-21T01:04:54;16.90;99.90
18807;DHT22;9531;52.030;4.380;2022-08-21T01:07:21;16.80;99.90
18807;DHT22;9531;52.030;4.380;2022-08-21T01:09:48;16.90;99.90
18807;DHT22;9531;52.030;4.380;2022-08-21T01:12:15;16.80;99.90
18807;DHT22;9531;52.030;4.380;2022-08-21T01:14:43;16.80;99.90
18807;DHT22;9531;52.030;4.380;2022-08-21T01:17:13;16.80;99.90
18807;DHT22;9531;52.030;4.380;2022-08-21T01:19:41;16.80;99.90
18807;DHT22;9531;52.030;4.380;2022-08-21T01:22:09;16.80;99.90
18807;DHT22;9531;52.030;4.380;2022-08-21T01:24:36;16.80;99.90
18807;DHT22;9531;52.030;4.380;2022-08-21T01:27:04;16.80;99.90
18807;DHT22;9531;52.030;4.380;2022-08-21T01:29:34;16.80;99.90
18807;DHT22;9531;52.030;4.380;2022-08-21T01:32:06;16.80;99.90
18807;DHT22;9531;52.030;4.380;2022-08-21T01:34:36;16.70;99.90
18807;DHT22;9531;52.030;4.380;2022-08-21T01:37:04;16.70;99.90
18807;DHT22;9531;52.030;4.380;2022-08-21T01:39:34;16.70;99.90
18807;DHT22;9531;52.030;4.380;2022-08-21T01:42:01;16.70;99.90
18807;DHT22;9531;52.030;4.380;2022-08-21T01:44:28;16.70;99.90
18807;DHT22;9531;52.030;4.380;2022-08-21T01:46:55;16.70;99.90
18807;DHT22;9531;52.030;4.380;2022-08-21T01:49:24;16.70;99.90
18807;DHT22;9531;52.030;4.380;2022-08-21T01:51:50;16.70;99.90
18807;DHT22;9531;52.030;4.380;2022-08-21T01:54:17;16.60;99.90
18807;DHT22;9531;52.030;4.380;2022-08-21T01:56:48;16.60;99.90
18807;DHT22;9531;52.030;4.380;2022-08-21T01:59:16;16.60;99.90
18807;DHT22;9531;52.030;4.380;2022-08-21T02:01:43;16.60;99.90
18807;DHT22;9531;52.030;4.380;2022-08-21T02:04:10;16.60;99.90
18807;DHT22;9531;52.030;4.380;2022-08-21T02:06:38;16.60;99.90
18807;DHT22;9531;52.030;4.380;2022-08-21T02:09:06;16.60;99.90
18807;DHT22;9531;52.030;4.380;2022-08-21T02:11:35;16.60;99.90
18807;DHT22;9531;52.030;4.380;2022-08-21T02:14:03;16.50;99.90
18807;DHT22;9531;52.030;4.380;2022-08-21T02:16:30;16.50;99.90
18807;DHT22;9531;52.030;4.380;2022-08-21T02:18:57;16.50;99.90
18807;DHT22;9531;52.030;4.380;2022-08-21T02:21:24;16.50;99.90
18807;DHT22;9531;52.030;4.380;2022-08-21T02:23:51;16.50;99.90
18807;DHT22;9531;52.030;4.380;2022-08-21T02:26:18;16.50;99.90
18807;DHT22;9531;52.030;4.380;2022-08-21T02:28:45;16.50;99.90
18807;DHT22;9531;52.030;4.380;2022-08-21T02:31:13;16.40;99.90
18807;DHT22;9531;52.030;4.380;2022-08-21T02:33:40;16.40;99.90
18807;DHT22;9531;52.030;4.380;2022-08-21T02:36:09;16.40;99.90
18807;DHT22;9531;52.030;4.380;2022-08-21T02:38:37;16.40;99.90
18807;DHT22;9531;52.030;4.380;2022-08-21T02:41:06;16.40;99.90
18807;DHT22;9531;52.030;4.380;2022-08-21T02:43:34;16.30;99.90
18807;DHT22;9531;52.030;4.380;2022-08-21T02:46:03;16.30;99.90
18807;DHT22;9531;52.030;4.380;2022-08-21T02:48:33;16.30;99.90
18807;DHT22;9531;52.030;4.380;2022-08-21T02:51:01;16.30;99.90
18807;DHT22;9531;52.030;4.380;2022-08-21T02:53:29;16.30;99.90
18807;DHT22;9531;52.030;4.380;2022-08-21T02:55:58;16.30;99.90
18807;DHT22;9531;52.030;4.380;2022-08-21T02:58:28;16.20;99.90
18807;DHT22;9531;52.030;4.380;2022-08-21T03:00:56;16.20;99.90
18807;DHT22;9531;52.030;4.380;2022-08-21T03:03:24;16.20;99.90
18807;DHT22;9531;52.030;4.380;2022-08-21T03:05:52;16.20;99.90
18807;DHT22;9531;52.030;4.380;2022-08-21T03:08:19;16.20;99.90
18807;DHT22;9531;52.030;4.380;2022-08-21T03:10:48;16.20;99.90
18807;DHT22;9531;52.030;4.380;2022-08-21T03:13:17;16.20;99.90
18807;DHT22;9531;52.030;4.380;2022-08-21T03:15:44;16.20;99.90
18807;DHT22;9531;52.030;4.380;2022-08-21T03:18:11;16.10;99.90
18807;DHT22;9531;52.030;4.380;2022-08-21T03:20:40;16.10;99.90
18807;DHT22;9531;52.030;4.380;2022-08-21T03:23:09;16.10;99.90
18807;DHT22;9531;52.030;4.380;2022-08-21T03:25:36;16.10;99.90
18807;DHT22;9531;52.030;4.380;2022-08-21T03:28:06;16.10;99.90
18807;DHT22;9531;52.030;4.380;2022-08-21T03:30:33;16.10;99.90
18807;DHT22;9531;52.030;4.380;2022-08-21T03:33:00;16.00;99.90
18807;DHT22;9531;52.030;4.380;2022-08-21T03:35:28;16.00;99.90
18807;DHT22;9531;52.030;4.380;2022-08-21T03:37:55;16.00;99.90
18807;DHT22;9531;52.030;4.380;2022-08-21T03:40:25;16.00;99.90
18807;DHT22;9531;52.030;4.380;2022-08-21T03:42:52;16.00;99.90
18807;DHT22;9531;52.030;4.380;2022-08-21T03:45:19;16.00;99.90
18807;DHT22;9531;52.030;4.380;2022-08-21T03:47:54;16.00;99.90
18807;DHT22;9531;52.030;4.380;2022-08-21T03:50:24;16.00;99.90
18807;DHT22;9531;52.030;4.380;2022-08-21T03:52:51;16.00;99.90
18807;DHT22;9531;52.030;4.380;2022-08-21T03:55:18;16.00;99.90
18807;DHT22;9531;52.030;4.380;2022-08-21T03:57:46;16.00;99.90
18807;DHT22;9531;52.030;4.380;2022-08-21T04:00:15;16.00;99.90
18807;DHT22;9531;52.030;4.380;2022-08-21T04:02:42;16.00;99.90
18807;DHT22;9531;52.030;4.380;2022-08-21T04:05:10;16.00;99.90
18807;DHT22;9531;52.030;4.380;2022-08-21T04:07:37;16.00;99.90
18807;DHT22;9531;52.030;4.380;2022-08-21T04:10:06;16.00;99.90
18807;DHT22;9531;52.030;4.380;2022-08-21T04:12:33;16.10;99.90
18807;DHT22;9531;52.030;4.380;2022-08-21T04:15:02;16.00;99.90
18807;DHT22;9531;52.030;4.380;2022-08-21T04:17:29;16.00;99.90
18807;DHT22;9531;52.030;4.380;2022-08-21T04:19:56;16.00;99.90
18807;DHT22;9531;52.030;4.380;2022-08-21T04:22:23;16.00;99.90
18807;DHT22;9531;52.030;4.380;2022-08-21T04:24:50;16.10;99.90
18807;DHT22;9531;52.030;4.380;2022-08-21T04:27:16;16.00;99.90
18807;DHT22;9531;52.030;4.380;2022-08-21T04:29:43;16.00;99.90
18807;DHT22;9531;52.030;4.380;2022-08-21T04:32:12;16.00;99.90
18807;DHT22;9531;52.030;4.380;2022-08-21T04:34:38;16.00;99.90
18807;DHT22;9531;52.030;4.380;2022-08-21T04:37:05;16.00;99.90
18807;DHT22;9531;52.030;4.380;2022-08-21T04:39:32;16.00;99.90
18807;DHT22;9531;52.030;4.380;2022-08-21T04:41:59;16.00;99.90
18807;DHT22;9531;52.030;4.380;2022-08-21T04:44:26;16.00;99.90
18807;DHT22;9531;52.030;4.380;2022-08-21T04:46:53;16.00;99.90
18807;DHT22;9531;52.030;4.380;2022-08-21T04:49:21;16.00;99.90
18807;DHT22;9531;52.030;4.380;2022-08-21T04:51:48;16.00;99.90
18807;DHT22;9531;52.030;4.380;2022-08-21T04:54:18;16.00;99.90
18807;DHT22;9531;52.030;4.380;2022-08-21T04:56:48;16.00;99.90
18807;DHT22;9531;52.030;4.380;2022-08-21T04:59:20;16.00;99.90
18807;DHT22;9531;52.030;4.380;2022-08-21T05:01:47;16.00;99.90
18807;DHT22;9531;52.030;4.380;2022-08-21T05:04:17;16.00;99.90
18807;DHT22;9531;52.030;4.380;2022-08-21T05:06:46;16.00;99.90
18807;DHT22;9531;52.030;4.380;2022-08-21T05:09:15;16.10;99.90
18807;DHT22;9531;52.030;4.380;2022-08-21T05:11:43;16.00;99.90
18807;DHT22;9531;52.030;4.380;2022-08-21T05:14:11;16.10;99.90
18807;DHT22;9531;52.030;4.380;2022-08-21T05:16:38;16.10;99.90
18807;DHT22;9531;52.030;4.380;2022-08-21T05:19:06;16.10;99.90
18807;DHT22;9531;52.030;4.380;2022-08-21T05:21:34;16.10;99.90
18807;DHT22;9531;52.030;4.380;2022-08-21T05:24:03;16.10;99.90
18807;DHT22;9531;52.030;4.380;2022-08-21T05:26:31;16.20;99.90
18807;DHT22;9531;52.030;4.380;2022-08-21T05:28:58;16.20;99.90
18807;DHT22;9531;52.030;4.380;2022-08-21T05:31:25;16.20;99.90
18807;DHT22;9531;52.030;4.380;2022-08-21T05:33:52;16.30;99.90
18807;DHT22;9531;52.030;4.380;2022-08-21T05:36:19;16.30;99.90
18807;DHT22;9531;52.030;4.380;2022-08-21T05:38:45;16.40;99.90
18807;DHT22;9531;52.030;4.380;2022-08-21T05:41:14;16.40;99.90
18807;DHT22;9531;52.030;4.380;2022-08-21T05:43:41;16.50;99.90
18807;DHT22;9531;52.030;4.380;2022-08-21T05:46:08;16.50;99.90
18807;DHT22;9531;52.030;4.380;2022-08-21T05:48:35;16.50;99.90
18807;DHT22;9531;52.030;4.380;2022-08-21T05:51:05;16.60;99.90
18807;DHT22;9531;52.030;4.380;2022-08-21T05:53:32;16.70;99.90
18807;DHT22;9531;52.030;4.380;2022-08-21T05:56:00;16.70;99.90
18807;DHT22;9531;52.030;4.380;2022-08-21T05:58:32;16.80;99.90
18807;DHT22;9531;52.030;4.380;2022-08-21T06:01:00;16.90;99.90
18807;DHT22;9531;52.030;4.380;2022-08-21T06:03:29;17.10;99.90
18807;DHT22;9531;52.030;4.380;2022-08-21T06:05:56;17.30;99.90
18807;DHT22;9531;52.030;4.380;2022-08-21T06:08:24;17.50;99.90
18807;DHT22;9531;52.030;4.380;2022-08-21T06:10:52;17.90;99.90
18807;DHT22;9531;52.030;4.380;2022-08-21T06:13:21;18.20;99.90
18807;DHT22;9531;52.030;4.380;2022-08-21T06:16:01;18.60;99.90
18807;DHT22;9531;52.030;4.380;2022-08-21T06:18:28;19.00;99.90
18807;DHT22;9531;52.030;4.380;2022-08-21T06:20:56;19.30;99.90
18807;DHT22;9531;52.030;4.380;2022-08-21T06:23:23;19.60;99.90
18807;DHT22;9531;52.030;4.380;2022-08-21T06:25:50;19.90;99.90
18807;DHT22;9531;52.030;4.380;2022-08-21T06:28:18;20.30;99.90
18807;DHT22;9531;52.030;4.380;2022-08-21T06:30:45;20.40;99.90
18807;DHT22;9531;52.030;4.380;2022-08-21T06:33:14;20.80;99.90
18807;DHT22;9531;52.030;4.380;2022-08-21T06:35:42;21.10;99.90
18807;DHT22;9531;52.030;4.380;2022-08-21T06:38:09;21.30;99.90
18807;DHT22;9531;52.030;4.380;2022-08-21T06:40:38;21.60;99.90
18807;DHT22;9531;52.030;4.380;2022-08-21T06:43:06;21.90;99.90
18807;DHT22;9531;52.030;4.380;2022-08-21T06:45:34;22.20;99.90
18807;DHT22;9531;52.030;4.380;2022-08-21T06:48:01;22.50;99.90
18807;DHT22;9531;52.030;4.380;2022-08-21T06:50:29;22.80;99.90
18807;DHT22;9531;52.030;4.380;2022-08-21T06:53:03;23.00;99.90
18807;DHT22;9531;52.030;4.380;2022-08-21T06:55:31;23.40;99.90
18807;DHT22;9531;52.030;4.380;2022-08-21T06:57:58;23.70;99.90
18807;DHT22;9531;52.030;4.380;2022-08-21T07:00:25;24.00;99.90
18807;DHT22;9531;52.030;4.380;2022-08-21T07:02:52;24.30;99.90
18807;DHT22;9531;52.030;4.380;2022-08-21T07:05:19;24.60;99.90
18807;DHT22;9531;52.030;4.380;2022-08-21T07:07:48;24.80;99.90
18807;DHT22;9531;52.030;4.380;2022-08-21T07:10:15;25.10;99.90
18807;DHT22;9531;52.030;4.380;2022-08-21T07:12:43;25.10;99.90
18807;DHT22;9531;52.030;4.380;2022-08-21T07:15:10;25.20;99.90
18807;DHT22;9531;52.030;4.380;2022-08-21T07:17:37;25.20;99.90
18807;DHT22;9531;52.030;4.380;2022-08-21T07:20:05;25.30;99.90
18807;DHT22;9531;52.030;4.380;2022-08-21T07:22:33;25.60;99.90
18807;DHT22;9531;52.030;4.380;2022-08-21T07:25:03;25.80;99.90
18807;DHT22;9531;52.030;4.380;2022-08-21T07:27:30;26.20;99.90
18807;DHT22;9531;52.030;4.380;2022-08-21T07:29:58;26.40;99.90
18807;DHT22;9531;52.030;4.380;2022-08-21T07:32:27;26.80;99.90
18807;DHT22;9531;52.030;4.380;2022-08-21T07:34:55;27.10;99.90
18807;DHT22;9531;52.030;4.380;2022-08-21T07:37:22;27.40;99.90
18807;DHT22;9531;52.030;4.380;2022-08-21T07:39:49;27.70;99.90
18807;DHT22;9531;52.030;4.380;2022-08-21T07:42:18;28.10;99.90
18807;DHT22;9531;52.030;4.380;2022-08-21T07:44:45;28.50;99.90
18807;DHT22;9531;52.030;4.380;2022-08-21T07:47:12;28.80;99.90
18807;DHT22;9531;52.030;4.380;2022-08-21T07:49:39;28.80;99.90
18807;DHT22;9531;52.030;4.380;2022-08-21T07:52:06;28.70;99.90
18807;DHT22;9531;52.030;4.380;2022-08-21T07:54:33;28.10;99.90
18807;DHT22;9531;52.030;4.380;2022-08-21T07:57:01;27.50;99.90
18807;DHT22;9531;52.030;4.380;2022-08-21T07:59:29;26.90;99.90
18807;DHT22;9531;52.030;4.380;2022-08-21T08:01:56;26.50;99.90
18807;DHT22;9531;52.030;4.380;2022-08-21T08:04:23;26.00;99.90
18807;DHT22;9531;52.030;4.380;2022-08-21T08:06:50;25.70;99.90
18807;DHT22;9531;52.030;4.380;2022-08-21T08:09:17;25.60;99.90
18807;DHT22;9531;52.030;4.380;2022-08-21T08:11:44;25.70;99.90
18807;DHT22;9531;52.030;4.380;2022-08-21T08:14:11;25.80;99.90
18807;DHT22;9531;52.030;4.380;2022-08-21T08:16:39;26.00;99.90
18807;DHT22;9531;52.030;4.380;2022-08-21T08:19:06;26.60;99.90
18807;DHT22;9531;52.030;4.380;2022-08-21T08:21:33;27.00;99.90
18807;DHT22;9531;52.030;4.380;2022-08-21T08:24:02;27.50;99.90
18807;DHT22;9531;52.030;4.380;2022-08-21T08:26:29;27.70;99.90
18807;DHT22;9531;52.030;4.380;2022-08-21T08:28:57;27.80;99.90
18807;DHT22;9531;52.030;4.380;2022-08-21T08:31:24;28.10;99.90
18807;DHT22;9531;52.030;4.380;2022-08-21T08:33:53;28.40;99.90
18807;DHT22;9531;52.030;4.380;2022-08-21T08:36:20;28.50;99.90
18807;DHT22;9531;52.030;4.380;2022-08-21T08:38:47;28.80;99.90
18807;DHT22;9531;52.030;4.380;2022-08-21T08:41:16;29.30;99.90
18807;DHT22;9531;52.030;4.380;2022-08-21T08:43:48;29.60;99.90
18807;DHT22;9531;52.030;4.380;2022-08-21T08:46:20;29.70;99.90
18807;DHT22;9531;52.030;4.380;2022-08-21T08:48:55;29.60;99.90
18807;DHT22;9531;52.030;4.380;2022-08-21T08:51:28;29.20;99.90
18807;DHT22;9531;52.030;4.380;2022-08-21T08:54:00;28.70;99.90
18807;DHT22;9531;52.030;4.380;2022-08-21T08:56:30;28.20;99.90
18807;DHT22;9531;52.030;4.380;2022-08-21T08:59:02;27.70;99.90
18807;DHT22;9531;52.030;4.380;2022-08-21T09:01:29;27.10;99.90
18807;DHT22;9531;52.030;4.380;2022-08-21T09:03:57;26.60;99.90
18807;DHT22;9531;52.030;4.380;2022-08-21T09:06:45;26.20;99.90
18807;DHT22;9531;52.030;4.380;2022-08-21T09:09:25;25.70;99.90
18807;DHT22;9531;52.030;4.380;2022-08-21T09:12:01;25.30;99.90
18807;DHT22;9531;52.030;4.380;2022-08-21T09:14:45;25.10;99.90
18807;DHT22;9531;52.030;4.380;2022-08-21T09:17:23;25.10;99.90
18807;DHT22;9531;52.030;4.380;2022-08-21T09:20:02;25.00;99.90
18807;DHT22;9531;52.030;4.380;2022-08-21T09:22:41;24.90;99.90
18807;DHT22;9531;52.030;4.380;2022-08-21T09:25:15;24.90;99.90
18807;DHT22;9531;52.030;4.380;2022-08-21T09:27:45;25.00;99.90
18807;DHT22;9531;52.030;4.380;2022-08-21T09:30:12;25.10;99.90
18807;DHT22;9531;52.030;4.380;2022-08-21T09:32:39;25.50;99.90
18807;DHT22;9531;52.030;4.380;2022-08-21T09:35:11;25.80;99.90
18807;DHT22;9531;52.030;4.380;2022-08-21T09:37:49;26.20;99.90
18807;DHT22;9531;52.030;4.380;2022-08-21T09:40:38;26.40;99.90
18807;DHT22;9531;52.030;4.380;2022-08-21T09:43:15;26.50;99.90
18807;DHT22;9531;52.030;4.380;2022-08-21T09:45:44;26.50;99.90
18807;DHT22;9531;52.030;4.380;2022-08-21T09:48:13;26.40;99.90
18807;DHT22;9531;52.030;4.380;2022-08-21T09:50:42;26.30;99.90
18807;DHT22;9531;52.030;4.380;2022-08-21T09:53:17;26.10;99.90
18807;DHT22;9531;52.030;4.380;2022-08-21T09:55:51;26.00;99.90
18807;DHT22;9531;52.030;4.380;2022-08-21T09:58:38;25.80;99.90
18807;DHT22;9531;52.030;4.380;2022-08-21T10:01:11;25.70;99.90
18807;DHT22;9531;52.030;4.380;2022-08-21T10:03:39;25.70;99.90
18807;DHT22;9531;52.030;4.380;2022-08-21T10:06:08;25.70;99.90
18807;DHT22;9531;52.030;4.380;2022-08-21T10:08:40;25.80;99.90
18807;DHT22;9531;52.030;4.380;2022-08-21T10:11:09;26.10;99.90
18807;DHT22;9531;52.030;4.380;2022-08-21T10:13:49;26.50;99.90
18807;DHT22;9531;52.030;4.380;2022-08-21T10:16:28;27.20;99.90
18807;DHT22;9531;52.030;4.380;2022-08-21T10:19:07;28.00;99.90
18807;DHT22;9531;52.030;4.380;2022-08-21T10:21:45;28.50;99.90
18807;DHT22;9531;52.030;4.380;2022-08-21T10:24:22;28.90;99.90
18807;DHT22;9531;52.030;4.380;2022-08-21T10:26:55;29.20;99.90
18807;DHT22;9531;52.030;4.380;2022-08-21T10:29:39;29.60;99.90
18807;DHT22;9531;52.030;4.380;2022-08-21T10:32:17;30.00;99.90
18807;DHT22;9531;52.030;4.380;2022-08-21T10:34:52;30.50;99.90
18807;DHT22;9531;52.030;4.380;2022-08-21T10:37:31;30.90;99.90
18807;DHT22;9531;52.030;4.380;2022-08-21T10:40:12;31.30;99.90
18807;DHT22;9531;52.030;4.380;2022-08-21T10:42:50;31.60;99.90
18807;DHT22;9531;52.030;4.380;2022-08-21T10:45:30;31.70;99.90
18807;DHT22;9531;52.030;4.380;2022-08-21T10:48:02;31.70;99.90
18807;DHT22;9531;52.030;4.380;2022-08-21T10:50:37;31.80;99.90
18807;DHT22;9531;52.030;4.380;2022-08-21T10:53:28;31.90;99.90
18807;DHT22;9531;52.030;4.380;2022-08-21T10:56:02;32.30;99.90
18807;DHT22;9531;52.030;4.380;2022-08-21T10:58:36;32.70;99.90
18807;DHT22;9531;52.030;4.380;2022-08-21T11:01:08;33.10;99.90
18807;DHT22;9531;52.030;4.380;2022-08-21T11:03:41;33.50;99.90
18807;DHT22;9531;52.030;4.380;2022-08-21T11:06:13;33.80;99.90
18807;DHT22;9531;52.030;4.380;2022-08-21T11:08:44;34.00;99.90
18807;DHT22;9531;52.030;4.380;2022-08-21T11:11:15;34.30;99.90
18807;DHT22;9531;52.030;4.380;2022-08-21T11:13:47;34.60;99.90
18807;DHT22;9531;52.030;4.380;2022-08-21T11:16:21;34.80;99.90
18807;DHT22;9531;52.030;4.380;2022-08-21T11:18:52;35.20;99.90
18807;DHT22;9531;52.030;4.380;2022-08-21T11:21:32;35.30;99.90
18807;DHT22;9531;52.030;4.380;2022-08-21T11:24:21;35.20;99.90
18807;DHT22;9531;52.030;4.380;2022-08-21T11:26:54;35.20;99.90
18807;DHT22;9531;52.030;4.380;2022-08-21T11:29:28;35.20;99.90
18807;DHT22;9531;52.030;4.380;2022-08-21T11:32:06;35.30;99.90
18807;DHT22;9531;52.030;4.380;2022-08-21T11:34:48;35.40;99.90
18807;DHT22;9531;52.030;4.380;2022-08-21T11:37:33;35.50;99.90
18807;DHT22;9531;52.030;4.380;2022-08-21T11:40:08;35.70;99.90
18807;DHT22;9531;52.030;4.380;2022-08-21T11:42:42;35.80;99.90
18807;DHT22;9531;52.030;4.380;2022-08-21T11:45:19;35.90;99.90
18807;DHT22;9531;52.030;4.380;2022-08-21T11:47:56;36.00;99.90
18807;DHT22;9531;52.030;4.380;2022-08-21T11:50:28;36.10;99.90
18807;DHT22;9531;52.030;4.380;2022-08-21T11:52:59;36.20;99.90
18807;DHT22;9531;52.030;4.380;2022-08-21T11:55:34;36.10;99.90
18807;DHT22;9531;52.030;4.380;2022-08-21T11:58:07;36.00;99.90
18807;DHT22;9531;52.030;4.380;2022-08-21T12:00:40;35.90;99.90
18807;DHT22;9531;52.030;4.380;2022-08-21T12:03:12;35.80;99.90
18807;DHT22;9531;52.030;4.380;2022-08-21T12:05:44;35.80;99.90
18807;DHT22;9531;52.030;4.380;2022-08-21T12:08:28;35.80;99.90
18807;DHT22;9531;52.030;4.380;2022-08-21T12:11:04;35.70;99.90
18807;DHT22;9531;52.030;4.380;2022-08-21T12:13:33;35.50;99.90
18807;DHT22;9531;52.030;4.380;2022-08-21T12:16:09;35.40;99.90
18807;DHT22;9531;52.030;4.380;2022-08-21T12:18:37;35.30;99.90
18807;DHT22;9531;52.030;4.380;2022-08-21T12:21:17;35.30;99.90
18807;DHT22;9531;52.030;4.380;2022-08-21T12:23:48;34.90;99.90
18807;DHT22;9531;52.030;4.380;2022-08-21T12:26:35;34.20;99.90
18807;DHT22;9531;52.030;4.380;2022-08-21T12:29:05;33.50;99.90
18807;DHT22;9531;52.030;4.380;2022-08-21T12:31:32;33.20;99.90
18807;DHT22;9531;52.030;4.380;2022-08-21T12:34:02;33.20;99.90
18807;DHT22;9531;52.030;4.380;2022-08-21T12:36:41;33.20;99.90
18807;DHT22;9531;52.030;4.380;2022-08-21T12:39:13;33.20;99.90
18807;DHT22;9531;52.030;4.380;2022-08-21T12:41:47;33.10;99.90
18807;DHT22;9531;52.030;4.380;2022-08-21T12:44:21;33.10;99.90
18807;DHT22;9531;52.030;4.380;2022-08-21T12:46:51;33.00;99.90
18807;DHT22;9531;52.030;4.380;2022-08-21T12:49:27;33.00;99.90
18807;DHT22;9531;52.030;4.380;2022-08-21T12:52:01;32.80;99.90
18807;DHT22;9531;52.030;4.380;2022-08-21T12:54:31;32.70;99.90
18807;DHT22;9531;52.030;4.380;2022-08-21T12:57:02;32.50;99.90
18807;DHT22;9531;52.030;4.380;2022-08-21T12:59:30;32.50;99.90
18807;DHT22;9531;52.030;4.380;2022-08-21T13:01:59;32.40;99.90
18807;DHT22;9531;52.030;4.380;2022-08-21T13:04:34;32.30;99.90
18807;DHT22;9531;52.030;4.380;2022-08-21T13:07:06;32.20;99.90
18807;DHT22;9531;52.030;4.380;2022-08-21T13:09:42;32.20;99.90
18807;DHT22;9531;52.030;4.380;2022-08-21T13:12:12;32.10;99.90
18807;DHT22;9531;52.030;4.380;2022-08-21T13:14:42;32.00;99.90
18807;DHT22;9531;52.030;4.380;2022-08-21T13:17:11;31.90;99.90
18807;DHT22;9531;52.030;4.380;2022-08-21T13:19:38;31.90;99.90
18807;DHT22;9531;52.030;4.380;2022-08-21T13:22:12;31.90;99.90
18807;DHT22;9531;52.030;4.380;2022-08-21T13:24:40;31.80;99.90
18807;DHT22;9531;52.030;4.380;2022-08-21T13:27:18;31.70;99.90
18807;DHT22;9531;52.030;4.380;2022-08-21T13:29:46;31.60;99.90
18807;DHT22;9531;52.030;4.380;2022-08-21T13:32:21;31.50;99.90
18807;DHT22;9531;52.030;4.380;2022-08-21T13:34:50;31.40;99.90
18807;DHT22;9531;52.030;4.380;2022-08-21T13:37:18;31.40;99.90
18807;DHT22;9531;52.030;4.380;2022-08-21T13:39:49;31.30;99.90
18807;DHT22;9531;52.030;4.380;2022-08-21T13:42:19;31.10;99.90
18807;DHT22;9531;52.030;4.380;2022-08-21T13:44:48;31.10;99.90
18807;DHT22;9531;52.030;4.380;2022-08-21T13:47:16;30.90;99.90
18807;DHT22;9531;52.030;4.380;2022-08-21T13:49:47;30.80;99.90
18807;DHT22;9531;52.030;4.380;2022-08-21T13:52:16;30.80;99.90
18807;DHT22;9531;52.030;4.380;2022-08-21T13:54:53;30.70;99.90
18807;DHT22;9531;52.030;4.380;2022-08-21T13:57:28;30.50;99.90
18807;DHT22;9531;52.030;4.380;2022-08-21T14:00:13;30.50;99.90
18807;DHT22;9531;52.030;4.380;2022-08-21T14:02:43;30.30;99.90
18807;DHT22;9531;52.030;4.380;2022-08-21T14:05:16;30.20;99.90
18807;DHT22;9531;52.030;4.380;2022-08-21T14:07:44;30.20;99.90
18807;DHT22;9531;52.030;4.380;2022-08-21T14:10:15;30.10;99.90
18807;DHT22;9531;52.030;4.380;2022-08-21T14:12:47;29.90;99.90
18807;DHT22;9531;52.030;4.380;2022-08-21T14:15:17;29.90;99.90
18807;DHT22;9531;52.030;4.380;2022-08-21T14:17:45;29.80;99.90
18807;DHT22;9531;52.030;4.380;2022-08-21T14:20:26;29.70;99.90
18807;DHT22;9531;52.030;4.380;2022-08-21T14:22:53;29.60;99.90
18807;DHT22;9531;52.030;4.380;2022-08-21T14:25:29;29.50;99.90
18807;DHT22;9531;52.030;4.380;2022-08-21T14:28:03;29.40;99.90
18807;DHT22;9531;52.030;4.380;2022-08-21T14:30:33;29.30;99.90
18807;DHT22;9531;52.030;4.380;2022-08-21T14:33:02;29.20;99.90
18807;DHT22;9531;52.030;4.380;2022-08-21T14:35:30;29.00;99.90
18807;DHT22;9531;52.030;4.380;2022-08-21T14:37:57;28.90;99.90
18807;DHT22;9531;52.030;4.380;2022-08-21T14:40:25;28.70;99.90
18807;DHT22;9531;52.030;4.380;2022-08-21T14:42:52;28.60;99.90
18807;DHT22;9531;52.030;4.380;2022-08-21T14:45:28;28.40;99.90
18807;DHT22;9531;52.030;4.380;2022-08-21T14:47:55;28.40;99.90
18807;DHT22;9531;52.030;4.380;2022-08-21T14:50:22;28.30;99.90
18807;DHT22;9531;52.030;4.380;2022-08-21T14:52:50;28.30;99.90
18807;DHT22;9531;52.030;4.380;2022-08-21T14:55:18;28.20;99.90
18807;DHT22;9531;52.030;4.380;2022-08-21T14:57:47;28.20;99.90
18807;DHT22;9531;52.030;4.380;2022-08-21T15:00:16;28.10;99.90
18807;DHT22;9531;52.030;4.380;2022-08-21T15:02:45;28.10;99.90
18807;DHT22;9531;52.030;4.380;2022-08-21T15:05:13;28.10;99.90
18807;DHT22;9531;52.030;4.380;2022-08-21T15:07:40;28.10;99.90
18807;DHT22;9531;52.030;4.380;2022-08-21T15:10:10;28.00;99.90
18807;DHT22;9531;52.030;4.380;2022-08-21T15:12:38;28.10;99.90
18807;DHT22;9531;52.030;4.380;2022-08-21T15:15:09;28.10;99.90
18807;DHT22;9531;52.030;4.380;2022-08-21T15:17:36;28.10;99.90
18807;DHT22;9531;52.030;4.380;2022-08-21T15:20:06;28.10;99.90
18807;DHT22;9531;52.030;4.380;2022-08-21T15:22:35;28.10;99.90
18807;DHT22;9531;52.030;4.380;2022-08-21T15:25:02;28.10;99.90
18807;DHT22;9531;52.030;4.380;2022-08-21T15:27:29;28.10;99.90
18807;DHT22;9531;52.030;4.380;2022-08-21T15:29:56;28.10;99.90
18807;DHT22;9531;52.030;4.380;2022-08-21T15:32:26;28.10;99.90
18807;DHT22;9531;52.030;4.380;2022-08-21T15:34:56;28.20;99.90
18807;DHT22;9531;52.030;4.380;2022-08-21T15:37:25;28.20;99.90
18807;DHT22;9531;52.030;4.380;2022-08-21T15:39:52;28.30;99.90
18807;DHT22;9531;52.030;4.380;2022-08-21T15:42:20;28.30;99.90
18807;DHT22;9531;52.030;4.380;2022-08-21T15:44:48;28.40;99.90
18807;DHT22;9531;52.030;4.380;2022-08-21T15:47:17;28.50;99.90
18807;DHT22;9531;52.030;4.380;2022-08-21T15:49:45;28.50;99.90
18807;DHT22;9531;52.030;4.380;2022-08-21T15:52:12;28.50;99.90
18807;DHT22;9531;52.030;4.380;2022-08-21T15:54:41;28.40;99.90
18807;DHT22;9531;52.030;4.380;2022-08-21T15:57:09;28.30;99.90
18807;DHT22;9531;52.030;4.380;2022-08-21T15:59:41;28.20;99.90
18807;DHT22;9531;52.030;4.380;2022-08-21T16:02:13;28.10;99.90